createdAt,value
2023-02-01T00:00:21.288Z,8.83
2023-02-01T00:02:49.746Z,9.00
2023-02-01T00:05:18.045Z,8.80
2023-02-01T00:07:48.894Z,9.03
2023-02-01T00:10:17.337Z,9.20
2023-02-01T00:12:45.682Z,8.90
2023-02-01T00:15:13.911Z,8.60
2023-02-01T00:17:42.132Z,8.40
2023-02-01T00:20:11.992Z,8.43
2023-02-01T00:22:40.245Z,8.93
2023-02-01T00:25:10.619Z,8.17
2023-02-01T00:27:38.920Z,8.40
2023-02-01T00:30:08.381Z,8.60
2023-02-01T00:32:36.719Z,7.40
2023-02-01T00:35:05.416Z,7.50
2023-02-01T00:37:33.726Z,7.73
2023-02-01T00:40:02.095Z,8.03
2023-02-01T00:42:32.812Z,6.60
2023-02-01T00:45:01.126Z,7.27
2023-02-01T00:47:29.696Z,6.97
2023-02-01T00:49:57.923Z,5.53
2023-02-01T00:52:26.269Z,5.73
2023-02-01T00:54:54.543Z,6.00
2023-02-01T00:57:22.762Z,6.93
2023-02-01T00:59:52.523Z,7.00
2023-02-01T01:02:20.825Z,5.53
2023-02-01T01:04:49.112Z,4.30
2023-02-01T01:07:17.353Z,4.37
2023-02-01T01:09:45.790Z,4.37
2023-02-01T01:12:14.093Z,3.30
2023-02-01T01:14:42.325Z,3.20
2023-02-01T01:17:12.200Z,2.13
2023-02-01T01:19:40.578Z,2.00
2023-02-01T01:22:08.844Z,1.80
2023-02-01T01:24:37.271Z,2.43
2023-02-01T01:27:05.647Z,2.10
2023-02-01T01:29:33.942Z,2.30
2023-02-01T01:32:02.681Z,1.60
2023-02-01T01:34:32.324Z,1.67
2023-02-01T01:37:00.673Z,2.00
2023-02-01T01:39:28.929Z,2.00
2023-02-01T01:41:57.177Z,2.03
2023-02-01T01:45:00.482Z,1.80
2023-02-01T01:47:29.230Z,2.00
2023-02-01T01:49:58.960Z,1.80
2023-02-01T01:52:27.270Z,2.07
2023-02-01T01:54:55.597Z,1.80
2023-02-01T01:57:26.344Z,1.53
2023-02-01T01:59:57.162Z,2.27
2023-02-01T02:02:25.925Z,2.90
2023-02-01T02:04:54.187Z,2.07
2023-02-01T02:07:25.268Z,2.10
2023-02-01T02:10:00.634Z,1.93
2023-02-01T02:12:29.673Z,1.73
2023-02-01T02:14:57.978Z,2.03
2023-02-01T02:17:32.234Z,1.90
2023-02-01T02:20:27.864Z,2.40
2023-02-01T02:23:21.065Z,2.40
2023-02-01T02:26:14.701Z,2.30
2023-02-01T02:29:11.849Z,2.40
2023-02-01T02:31:49.206Z,2.80
2023-02-01T02:34:20.413Z,3.23
2023-02-01T02:36:54.367Z,4.00
2023-02-01T02:39:25.170Z,3.50
2023-02-01T02:42:14.314Z,3.23
2023-02-01T02:45:04.854Z,2.10
2023-02-01T02:47:36.176Z,1.93
2023-02-01T02:50:31.068Z,2.30
2023-02-01T02:53:18.590Z,1.97
2023-02-01T02:55:46.938Z,2.90
2023-02-01T02:58:32.605Z,2.60
2023-02-01T03:01:18.427Z,3.30
2023-02-01T03:04:09.929Z,3.80
2023-02-01T03:06:41.047Z,4.17
2023-02-01T03:09:12.670Z,4.57
2023-02-01T03:11:58.437Z,4.30
2023-02-01T03:14:26.660Z,4.43
2023-02-01T03:16:57.301Z,4.60
2023-02-01T03:19:27.408Z,5.03
2023-02-01T03:24:34.369Z,5.17
2023-02-01T03:27:05.828Z,5.27
2023-02-01T03:29:40.328Z,5.17
2023-02-01T03:32:08.716Z,5.80
2023-02-01T03:34:37.140Z,5.37
2023-02-01T03:37:07.612Z,6.50
2023-02-01T03:39:38.424Z,6.23
2023-02-01T03:42:07.653Z,4.10
2023-02-01T03:44:37.385Z,3.17
2023-02-01T03:47:08.564Z,3.13
2023-02-01T03:49:38.048Z,2.33
2023-02-01T03:52:08.234Z,2.50
2023-02-01T03:54:36.600Z,2.20
2023-02-01T03:57:07.270Z,1.83
2023-02-01T03:59:35.495Z,1.80
2023-02-01T04:02:03.775Z,2.17
2023-02-01T04:04:32.160Z,2.07
2023-02-01T04:07:00.544Z,2.83
2023-02-01T04:09:30.245Z,3.70
2023-02-01T04:11:58.600Z,3.67
2023-02-01T04:14:26.882Z,5.07
2023-02-01T04:16:55.311Z,5.20
2023-02-01T04:19:23.678Z,3.77
2023-02-01T04:21:51.949Z,4.30
2023-02-01T04:24:20.165Z,5.00
2023-02-01T04:26:49.894Z,5.40
2023-02-01T04:29:18.171Z,6.20
2023-02-01T04:31:47.410Z,8.17
2023-02-01T04:34:15.706Z,8.93
2023-02-01T04:36:46.340Z,9.87
2023-02-01T04:39:15.574Z,9.67
2023-02-01T04:41:43.813Z,9.73
2023-02-01T04:44:14.973Z,10.70
2023-02-01T04:46:43.322Z,9.73
2023-02-01T04:49:11.672Z,10.70
2023-02-01T04:51:39.931Z,12.37
2023-02-01T04:54:08.199Z,12.23
2023-02-01T04:56:36.962Z,12.40
2023-02-01T04:59:05.235Z,11.90
2023-02-01T05:01:34.962Z,11.93
2023-02-01T05:04:03.290Z,10.60
2023-02-01T05:06:31.534Z,8.90
2023-02-01T05:08:59.784Z,8.73
2023-02-01T05:11:41.873Z,8.47
2023-02-01T05:14:10.105Z,7.87
2023-02-01T05:16:39.756Z,8.63
2023-02-01T05:19:08.003Z,8.20
2023-02-01T05:21:36.257Z,7.40
2023-02-01T05:24:15.906Z,6.43
2023-02-01T05:26:44.240Z,7.07
2023-02-01T05:29:12.772Z,8.13
2023-02-01T05:31:42.498Z,7.97
2023-02-01T05:34:10.880Z,8.27
2023-02-01T05:36:39.115Z,7.33
2023-02-01T05:39:07.340Z,6.47
2023-02-01T05:41:35.658Z,6.40
2023-02-01T05:44:03.909Z,7.40
2023-02-01T05:46:32.199Z,5.90
2023-02-01T05:49:01.902Z,6.63
2023-02-01T05:51:30.172Z,7.23
2023-02-01T05:53:58.405Z,6.70
2023-02-01T05:56:26.824Z,7.67
2023-02-01T05:58:55.060Z,7.23
2023-02-01T06:01:23.330Z,8.33
2023-02-01T06:03:51.600Z,8.60
2023-02-01T06:06:21.293Z,9.87
2023-02-01T06:08:49.526Z,9.03
2023-02-01T06:11:31.690Z,8.33
2023-02-01T06:14:00.608Z,8.97
2023-02-01T06:16:29.932Z,5.73
2023-02-01T06:18:58.170Z,5.93
2023-02-01T06:21:27.918Z,6.03
2023-02-01T06:23:56.536Z,5.73
2023-02-01T06:26:24.850Z,6.40
2023-02-01T06:28:53.480Z,6.10
2023-02-01T06:31:21.788Z,5.70
2023-02-01T06:33:50.188Z,5.53
2023-02-01T06:36:19.820Z,4.97
2023-02-01T06:38:49.583Z,4.67
2023-02-01T06:41:18.002Z,5.23
2023-02-01T06:43:46.676Z,4.47
2023-02-01T06:46:15.329Z,4.30
2023-02-01T06:48:43.767Z,4.63
2023-02-01T06:51:23.777Z,6.00
2023-02-01T06:53:53.552Z,5.07
2023-02-01T06:56:22.019Z,4.60
2023-02-01T06:58:50.385Z,5.10
2023-02-01T07:01:18.849Z,4.83
2023-02-01T07:03:49.776Z,5.30
2023-02-01T07:06:18.042Z,6.00
2023-02-01T07:08:46.475Z,6.67
2023-02-01T07:11:17.059Z,6.67
2023-02-01T07:13:45.553Z,6.33
2023-02-01T07:16:14.754Z,6.97
2023-02-01T07:18:43.145Z,5.97
2023-02-01T07:21:11.463Z,6.03
2023-02-01T07:23:39.724Z,6.57
2023-02-01T07:26:09.025Z,5.27
2023-02-01T07:28:38.782Z,5.63
2023-02-01T07:31:07.471Z,6.77
2023-02-01T07:33:35.783Z,5.83
2023-02-01T07:36:04.769Z,5.53
2023-02-01T07:38:33.015Z,5.40
2023-02-01T07:41:01.667Z,5.97
2023-02-01T07:43:30.008Z,4.10
2023-02-01T07:45:59.785Z,5.00
2023-02-01T07:48:28.248Z,5.53
2023-02-01T07:51:00.580Z,5.73
2023-02-01T07:53:28.904Z,4.73
2023-02-01T07:55:57.968Z,5.70
2023-02-01T07:58:26.243Z,5.37
2023-02-01T08:01:12.346Z,5.43
2023-02-01T08:03:42.010Z,5.43
2023-02-01T08:06:10.243Z,5.77
2023-02-01T08:08:38.762Z,6.70
2023-02-01T08:11:07.668Z,14.40
2023-02-01T08:13:36.202Z,6.20
2023-02-01T08:16:05.525Z,5.87
2023-02-01T08:18:33.830Z,5.80
2023-02-01T08:21:07.458Z,6.20
2023-02-01T08:23:35.768Z,6.87
2023-02-01T08:26:08.926Z,6.93
2023-02-01T08:28:38.017Z,6.73
2023-02-01T08:31:08.059Z,6.17
2023-02-01T08:33:36.826Z,7.40
2023-02-01T08:36:07.675Z,8.60
2023-02-01T08:38:37.751Z,7.80
2023-02-01T08:41:09.285Z,7.30
2023-02-01T08:43:37.565Z,7.47
2023-02-01T08:46:06.095Z,8.73
2023-02-01T08:48:34.356Z,9.43
2023-02-01T08:51:04.028Z,13.13
2023-02-01T08:53:33.672Z,8.13
2023-02-01T08:56:02.134Z,9.40
2023-02-01T08:58:30.393Z,9.00
2023-02-01T09:00:58.706Z,8.60
2023-02-01T09:03:27.083Z,9.97
2023-02-01T09:06:00.333Z,8.40
2023-02-01T09:08:28.676Z,7.07
2023-02-01T09:11:03.288Z,8.10
2023-02-01T09:13:31.954Z,8.07
2023-02-01T09:16:01.143Z,6.60
2023-02-01T09:18:29.482Z,7.90
2023-02-01T09:20:57.805Z,8.10
2023-02-01T09:23:26.084Z,6.57
2023-02-01T09:25:54.469Z,7.77
2023-02-01T09:28:24.167Z,6.70
2023-02-01T09:30:52.527Z,7.10
2023-02-01T09:33:22.335Z,7.40
2023-02-01T09:35:50.675Z,7.10
2023-02-01T09:38:18.894Z,6.27
2023-02-01T09:40:48.768Z,7.17
2023-02-01T09:43:27.425Z,7.63
2023-02-01T09:46:01.201Z,6.07
2023-02-01T09:48:31.277Z,6.77
2023-02-01T09:51:00.425Z,6.33
2023-02-01T09:53:31.075Z,8.47
2023-02-01T09:56:02.544Z,9.90
2023-02-01T09:58:33.360Z,9.90
2023-02-01T10:01:02.913Z,11.50
2023-02-01T10:03:32.080Z,14.07
2023-02-01T10:06:11.716Z,15.77
2023-02-01T10:08:51.197Z,8.30
2023-02-01T10:11:24.148Z,10.13
2023-02-01T10:13:57.346Z,13.23
2023-02-01T10:16:32.708Z,10.30
2023-02-01T10:19:12.568Z,13.43
2023-02-01T10:21:46.173Z,14.17
2023-02-01T10:24:44.140Z,15.67
2023-02-01T10:27:17.472Z,10.93
2023-02-01T10:29:47.870Z,13.37
2023-02-01T10:32:17.640Z,18.70
2023-02-01T10:34:46.901Z,23.90
2023-02-01T10:37:25.889Z,15.10
2023-02-01T10:39:55.798Z,17.40
2023-02-01T10:42:26.440Z,10.00
2023-02-01T10:44:56.735Z,14.73
2023-02-01T10:47:24.974Z,13.40
2023-02-01T10:49:57.903Z,11.57
2023-02-01T10:52:32.388Z,12.03
2023-02-01T10:55:02.738Z,10.67
2023-02-01T10:57:32.933Z,9.20
2023-02-01T11:00:05.166Z,14.10
2023-02-01T11:02:34.823Z,12.17
2023-02-01T11:05:03.793Z,12.57
2023-02-01T11:07:32.296Z,15.37
2023-02-01T11:10:00.536Z,9.33
2023-02-01T11:12:31.579Z,8.50
2023-02-01T11:15:05.833Z,9.00
2023-02-01T11:17:36.078Z,8.27
2023-02-01T11:20:06.721Z,8.43
2023-02-01T11:22:34.994Z,8.70
2023-02-01T11:25:04.003Z,10.40
2023-02-01T11:27:33.368Z,8.10
2023-02-01T11:30:03.258Z,8.47
2023-02-01T11:32:33.067Z,10.00
2023-02-01T11:35:04.095Z,7.83
2023-02-01T11:37:33.666Z,29.90
2023-02-01T11:40:02.639Z,8.33
2023-02-01T11:42:30.988Z,8.43
2023-02-01T11:45:20.917Z,9.07
2023-02-01T11:47:50.963Z,11.70
2023-02-01T11:50:22.356Z,7.10
2023-02-01T11:52:58.042Z,8.77
2023-02-01T11:55:41.947Z,6.43
2023-02-01T11:58:19.797Z,6.63
2023-02-01T12:00:59.191Z,5.80
2023-02-01T12:03:55.233Z,6.23
2023-02-01T12:06:27.969Z,5.73
2023-02-01T12:09:20.963Z,6.33
2023-02-01T12:11:54.396Z,6.33
2023-02-01T12:14:30.415Z,7.47
2023-02-01T12:17:08.888Z,10.13
2023-02-01T12:19:45.946Z,6.03
2023-02-01T12:22:21.558Z,5.73
2023-02-01T12:25:17.283Z,5.10
2023-02-01T12:28:13.839Z,5.80
2023-02-01T12:31:07.369Z,4.80
2023-02-01T12:33:41.808Z,5.13
2023-02-01T12:36:16.394Z,4.57
2023-02-01T12:38:52.549Z,5.33
2023-02-01T12:42:01.088Z,5.67
2023-02-01T12:44:37.741Z,5.43
2023-02-01T12:47:08.940Z,5.37
2023-02-01T12:49:46.009Z,5.73
2023-02-01T12:52:19.021Z,5.53
2023-02-01T12:54:50.962Z,6.07
2023-02-01T12:57:21.013Z,5.63
2023-02-01T12:59:52.148Z,5.87
2023-02-01T13:02:24.533Z,5.60
2023-02-01T13:05:00.015Z,5.20
2023-02-01T13:07:31.713Z,5.87
2023-02-01T13:10:03.998Z,6.13
2023-02-01T13:12:36.015Z,6.70
2023-02-01T13:15:06.303Z,6.03
2023-02-01T13:17:35.427Z,7.20
2023-02-01T13:20:06.497Z,8.13
2023-02-01T13:22:37.759Z,8.00
2023-02-01T13:25:07.039Z,9.33
2023-02-01T13:27:35.345Z,11.03
2023-02-01T13:30:04.862Z,8.73
2023-02-01T13:33:54.306Z,8.80
2023-02-01T13:36:17.021Z,10.30
2023-02-01T13:39:13.936Z,8.27
2023-02-01T13:41:43.978Z,7.30
2023-02-01T13:44:25.342Z,6.90
2023-02-01T13:46:53.660Z,6.47
2023-02-01T13:49:23.689Z,6.50
2023-02-01T13:51:53.333Z,6.70
2023-02-01T13:54:31.417Z,7.27
2023-02-01T13:57:01.188Z,6.40
2023-02-01T13:59:55.889Z,5.90
2023-02-01T14:02:50.220Z,6.43
2023-02-01T14:05:51.277Z,6.73
2023-02-01T14:08:24.657Z,8.17
2023-02-01T14:10:56.899Z,7.83
2023-02-01T14:13:28.837Z,8.60
2023-02-01T14:16:20.941Z,7.90
2023-02-01T14:18:59.579Z,9.00
2023-02-01T14:21:29.764Z,10.03
2023-02-01T14:24:01.436Z,9.33
2023-02-01T14:26:45.080Z,7.80
2023-02-01T14:29:23.841Z,9.10
2023-02-01T14:32:17.321Z,7.27
2023-02-01T14:34:53.571Z,10.17
2023-02-01T14:37:31.435Z,8.77
2023-02-01T14:40:03.440Z,9.90
2023-02-01T14:42:35.903Z,9.30
2023-02-01T14:45:40.974Z,9.33
2023-02-01T14:48:44.462Z,9.17
2023-02-01T14:51:14.012Z,9.77
2023-02-01T14:53:44.104Z,11.00
2023-02-01T14:56:15.144Z,11.47
2023-02-01T14:58:46.380Z,11.60
2023-02-01T15:01:23.361Z,9.97
2023-02-01T15:03:55.623Z,11.00
2023-02-01T15:06:29.055Z,9.60
2023-02-01T15:08:58.924Z,10.97
2023-02-01T15:11:27.348Z,11.07
2023-02-01T15:13:58.236Z,11.40
2023-02-01T15:16:27.188Z,12.03
2023-02-01T15:19:11.108Z,11.10
2023-02-01T15:21:47.020Z,13.47
2023-02-01T15:24:15.672Z,11.03
2023-02-01T15:26:44.030Z,10.40
2023-02-01T15:29:15.311Z,10.17
2023-02-01T15:31:45.699Z,10.80
2023-02-01T15:34:14.220Z,10.87
2023-02-01T15:36:53.559Z,9.93
2023-02-01T15:39:30.535Z,9.53
2023-02-01T15:42:01.952Z,10.27
2023-02-01T15:44:43.665Z,10.00
2023-02-01T15:47:17.879Z,13.90
2023-02-01T15:49:47.219Z,12.00
2023-02-01T15:52:23.750Z,12.40
2023-02-01T15:54:53.854Z,11.27
2023-02-01T15:57:23.449Z,10.27
2023-02-01T15:59:56.251Z,11.13
2023-02-01T16:02:36.551Z,11.97
2023-02-01T16:05:05.346Z,10.47
2023-02-01T16:07:34.449Z,10.23
2023-02-01T16:10:07.997Z,9.33
2023-02-01T16:12:48.615Z,9.57
2023-02-01T16:15:18.452Z,8.93
2023-02-01T16:17:46.900Z,9.37
2023-02-01T16:20:16.087Z,10.53
2023-02-01T16:22:44.355Z,11.30
2023-02-01T16:25:12.673Z,10.87
2023-02-01T16:27:40.975Z,10.97
2023-02-01T16:30:11.105Z,11.40
2023-02-01T16:32:40.837Z,11.20
2023-02-01T16:35:13.311Z,11.43
2023-02-01T16:37:41.594Z,10.97
2023-02-01T16:40:14.923Z,12.37
2023-02-01T16:42:43.232Z,14.77
2023-02-01T16:45:12.033Z,15.17
2023-02-01T16:47:52.302Z,15.30
2023-02-01T16:50:23.778Z,17.47
2023-02-01T16:52:54.053Z,15.40
2023-02-01T16:55:24.029Z,11.73
2023-02-01T16:57:52.738Z,11.07
2023-02-01T17:00:24.967Z,11.13
2023-02-01T17:02:55.359Z,10.80
2023-02-01T17:05:24.217Z,10.00
2023-02-01T17:07:52.880Z,11.33
2023-02-01T17:10:33.356Z,9.97
2023-02-01T17:13:02.848Z,9.90
2023-02-01T17:15:35.639Z,10.23
2023-02-01T17:18:05.535Z,11.07
2023-02-01T17:20:34.029Z,11.00
2023-02-01T17:23:02.371Z,12.23
2023-02-01T17:25:30.613Z,9.23
2023-02-01T17:27:59.167Z,9.20
2023-02-01T17:30:27.455Z,10.93
2023-02-01T17:32:56.983Z,9.67
2023-02-01T17:35:28.338Z,13.57
2023-02-01T17:37:56.772Z,10.40
2023-02-01T17:40:25.438Z,10.27
2023-02-01T17:42:57.634Z,12.70
2023-02-01T17:45:41.378Z,11.17
2023-02-01T17:48:10.023Z,11.70
2023-02-01T17:50:39.779Z,17.37
2023-02-01T17:53:10.015Z,19.63
2023-02-01T17:55:39.870Z,14.53
2023-02-01T17:58:08.118Z,11.03
2023-02-01T18:00:38.107Z,20.03
2023-02-01T18:03:07.263Z,19.60
2023-02-01T18:05:41.662Z,14.47
2023-02-01T18:08:10.009Z,14.60
2023-02-01T18:10:38.375Z,14.33
2023-02-01T18:13:06.723Z,22.60
2023-02-01T18:15:35.248Z,14.30
2023-02-01T18:18:03.558Z,20.67
2023-02-01T18:20:31.817Z,13.00
2023-02-01T18:23:01.451Z,16.43
2023-02-01T18:25:34.159Z,16.80
2023-02-01T18:28:02.437Z,20.20
2023-02-01T18:30:32.125Z,14.30
2023-02-01T18:33:00.556Z,12.03
2023-02-01T18:35:30.450Z,12.33
2023-02-01T18:38:00.091Z,12.57
2023-02-01T18:40:29.951Z,11.63
2023-02-01T18:42:58.354Z,11.97
2023-02-01T18:45:32.502Z,11.93
2023-02-01T18:48:01.122Z,11.70
2023-02-01T18:50:29.967Z,12.33
2023-02-01T18:53:00.389Z,13.67
2023-02-01T18:55:29.209Z,10.63
2023-02-01T18:57:57.481Z,11.50
2023-02-01T19:00:25.936Z,13.57
2023-02-01T19:02:54.245Z,12.23
2023-02-01T19:05:23.019Z,13.37
2023-02-01T19:07:51.525Z,13.07
2023-02-01T19:10:23.242Z,13.00
2023-02-01T19:12:51.767Z,14.47
2023-02-01T19:15:20.272Z,13.63
2023-02-01T19:17:50.554Z,13.40
2023-02-01T19:20:20.003Z,13.60
2023-02-01T19:22:48.464Z,14.60
2023-02-01T19:25:21.852Z,14.53
2023-02-01T19:27:52.029Z,15.60
2023-02-01T19:30:21.057Z,15.17
2023-02-01T19:32:49.601Z,15.23
2023-02-01T19:35:19.597Z,17.20
2023-02-01T19:37:48.016Z,15.67
2023-02-01T19:40:17.501Z,15.13
2023-02-01T19:42:46.618Z,15.40
2023-02-01T19:45:16.365Z,15.53
2023-02-01T19:47:44.683Z,13.93
2023-02-01T19:50:16.761Z,13.07
2023-02-01T19:52:45.880Z,13.70
2023-02-01T19:55:14.169Z,14.20
2023-02-01T19:57:43.962Z,13.07
2023-02-01T20:00:15.439Z,12.23
2023-02-01T20:02:46.362Z,12.77
2023-02-01T20:05:15.392Z,13.37
2023-02-01T20:07:43.887Z,12.17
2023-02-01T20:10:12.586Z,12.37
2023-02-01T20:12:40.958Z,13.03
2023-02-01T20:15:09.863Z,12.33
2023-02-01T20:17:38.360Z,13.13
2023-02-01T20:20:09.166Z,14.23
2023-02-01T20:22:37.553Z,16.80
2023-02-01T20:25:06.479Z,15.90
2023-02-01T20:27:35.581Z,15.83
2023-02-01T20:30:04.130Z,16.90
2023-02-01T20:32:32.461Z,18.93
2023-02-01T20:35:00.767Z,21.07
2023-02-01T20:37:30.520Z,22.27
2023-02-01T20:39:58.760Z,21.43
2023-02-01T20:42:27.044Z,22.43
2023-02-01T20:44:55.359Z,21.00
2023-02-01T20:47:23.734Z,20.10
2023-02-01T20:49:52.038Z,17.53
2023-02-01T20:52:20.314Z,18.40
2023-02-01T20:54:49.993Z,14.47
2023-02-01T20:57:18.329Z,16.27
2023-02-01T20:59:49.315Z,13.73
2023-02-01T21:02:17.585Z,13.60
2023-02-01T21:04:45.988Z,13.47
2023-02-01T21:07:14.398Z,12.47
2023-02-01T21:09:43.366Z,12.30
2023-02-01T21:12:13.448Z,13.10
2023-02-01T21:14:41.800Z,13.43
2023-02-01T21:17:10.202Z,15.13
2023-02-01T21:19:44.010Z,14.50
2023-02-01T21:22:12.563Z,15.60
2023-02-01T21:24:41.259Z,15.80
2023-02-01T21:27:09.588Z,16.93
2023-02-01T21:29:39.287Z,16.93
2023-02-01T21:32:07.853Z,16.83
2023-02-01T21:34:36.330Z,16.63
2023-02-01T21:37:04.772Z,17.97
2023-02-01T21:39:33.027Z,17.77
2023-02-01T21:42:17.653Z,17.67
2023-02-01T21:44:47.688Z,18.87
2023-02-01T21:47:17.656Z,20.00
2023-02-01T21:49:46.252Z,20.07
2023-02-01T21:52:14.990Z,21.63
2023-02-01T21:54:43.285Z,22.57
2023-02-01T21:57:12.447Z,20.70
2023-02-01T21:59:40.994Z,18.60
2023-02-01T22:02:13.172Z,19.00
2023-02-01T22:04:41.471Z,16.83
2023-02-01T22:07:09.968Z,16.97
2023-02-01T22:09:38.415Z,17.00
2023-02-01T22:12:08.545Z,18.40
2023-02-01T22:14:36.798Z,16.87
2023-02-01T22:17:05.169Z,16.47
2023-02-01T22:19:34.917Z,14.80
2023-02-01T22:22:03.325Z,14.17
2023-02-01T22:24:31.619Z,14.47
2023-02-01T22:27:13.504Z,14.00
2023-02-01T22:29:43.322Z,13.33
2023-02-01T22:32:13.304Z,12.13
2023-02-01T22:34:42.992Z,11.17
2023-02-01T22:37:12.192Z,10.37
2023-02-01T22:39:40.965Z,9.53
2023-02-01T22:42:09.231Z,8.30
2023-02-01T22:44:37.637Z,8.23
2023-02-01T22:47:06.060Z,7.13
2023-02-01T22:49:34.310Z,7.33
2023-02-01T22:52:04.035Z,7.20
2023-02-01T22:54:32.368Z,7.17
2023-02-01T22:57:01.268Z,7.20
2023-02-01T22:59:29.491Z,7.10
2023-02-01T23:01:57.840Z,6.23
2023-02-01T23:04:26.207Z,6.47
2023-02-01T23:06:54.493Z,7.13
2023-02-01T23:09:25.215Z,8.07
2023-02-01T23:11:53.495Z,8.30
2023-02-01T23:14:21.756Z,7.60
2023-02-01T23:16:50.716Z,5.63
2023-02-01T23:19:20.468Z,5.10
2023-02-01T23:21:48.966Z,5.20
2023-02-01T23:24:17.212Z,4.00
2023-02-01T23:26:46.918Z,4.37
2023-02-01T23:29:18.676Z,4.23
2023-02-01T23:31:47.050Z,4.23
2023-02-01T23:34:15.329Z,4.00
2023-02-01T23:36:43.652Z,3.53
2023-02-01T23:39:11.891Z,3.80
2023-02-01T23:41:40.106Z,3.63
2023-02-01T23:44:09.887Z,2.80
2023-02-01T23:46:39.231Z,2.90
2023-02-01T23:49:08.850Z,2.93
2023-02-01T23:51:37.242Z,3.13
2023-02-01T23:54:05.756Z,3.90
2023-02-01T23:56:35.003Z,3.67
2023-02-01T23:59:03.631Z,4.90
